Terminal Aerodrome Forecast
Issued by NWS

Home | Current Version | Previous Version | Text Only | Print | Product List | Glossary On
Versions: 1 2 3 4 5 6 7 8 9 10
072
FTUS43 KIND 250525
TAFHUF
TAF
KHUF 250525Z 2506/2606 13005KT P6SM FEW250
     FM251700 16009KT P6SM SCT200=

USA.gov is the U.S. government's official web portal to all federal, state and local government web resources and services.